Details for TUI fly (Netherlands) at EHEH




Go Back


Latest METAR
Local Time

EHEH 061655Z AUTO 28011KT 240V340 9999 BKN096 18/07 Q1021 BLU 26012G22KT CAVOK
06/04/2020, 19:36:17

Description
Results
TUI fly (Netherlands) Logo
Number of Pilots based at EHEH
0 Pilots Based here
Number of TUI fly (Netherlands) Flights Departed from EHEH
0 Flights Departed
Number of TUI fly (Netherlands) Flights Arrived at EHEH
0 Flights Arrived
Number of TUI fly (Netherlands) Schedules Departing from EHEH
9 Schedules
Number of TUI fly (Netherlands) Schedules Arriving at EHEH
10 Schedules
Number of TUI fly (Netherlands) Schedules Departing from EHEH availible today
2 Schedules Today
Number of TUI fly (Netherlands) Schedules Arriving at EHEH availible today
2 Schedules Today
Average Landing Rate at EHEH
-191 fpm
TUI fly (Netherlands) Average Landing Rate at EHEH
0 fpm
Total Fuel Purchased at EHEH by TUI fly (Netherlands)
0.00 kgs / 0.00 lbs

Pilots Based at EHEH


Pilot ID
Pilot Name
Pilot Rank
No. of Flights
No. of Flying Hours
There are no pilots assigned to this hub!   Will you be the first?